createdAt,value
2023-05-05T00:00:45.241Z,380.00
2023-05-05T00:01:45.253Z,382.00
2023-05-05T00:02:45.339Z,383.00
2023-05-05T00:03:45.339Z,382.00
2023-05-05T00:04:45.239Z,384.00
2023-05-05T00:05:45.256Z,382.00
2023-05-05T00:06:45.249Z,381.00
2023-05-05T00:07:45.261Z,382.00
2023-05-05T00:08:45.266Z,383.00
2023-05-05T00:09:45.284Z,382.00
2023-05-05T00:10:45.302Z,380.00
2023-05-05T00:11:45.288Z,380.00
2023-05-05T00:12:45.322Z,380.00
2023-05-05T00:13:45.299Z,378.00
2023-05-05T00:14:45.300Z,379.00
2023-05-05T00:15:45.308Z,378.00
2023-05-05T00:16:45.342Z,379.00
2023-05-05T00:17:45.384Z,379.00
2023-05-05T00:18:45.345Z,383.00
2023-05-05T00:19:45.358Z,385.00
2023-05-05T00:20:45.385Z,387.00
2023-05-05T00:21:45.360Z,386.00
2023-05-05T00:22:45.388Z,384.00
2023-05-05T00:23:45.371Z,382.00
2023-05-05T00:24:45.388Z,382.00
2023-05-05T00:25:45.420Z,382.00
2023-05-05T00:26:45.406Z,383.00
2023-05-05T00:27:45.419Z,383.00
2023-05-05T00:28:45.425Z,384.00
2023-05-05T00:29:45.427Z,385.00
2023-05-05T00:30:45.477Z,384.00
2023-05-05T00:31:45.476Z,384.00
2023-05-05T00:32:45.546Z,386.00
2023-05-05T00:33:45.491Z,388.00
2023-05-05T00:34:45.481Z,388.00
2023-05-05T00:35:45.499Z,389.00
2023-05-05T00:36:45.508Z,388.00
2023-05-05T00:37:45.529Z,388.00
2023-05-05T00:38:45.553Z,387.00
2023-05-05T00:39:45.554Z,387.00
2023-05-05T00:40:45.586Z,385.00
2023-05-05T00:41:45.566Z,386.00
2023-05-05T00:42:45.581Z,386.00
2023-05-05T00:43:45.600Z,383.00
2023-05-05T00:44:45.596Z,383.00
2023-05-05T00:45:45.587Z,384.00
2023-05-05T00:46:45.688Z,383.00
2023-05-05T00:47:45.658Z,383.00
2023-05-05T00:48:45.648Z,381.00
2023-05-05T00:49:45.635Z,381.00
2023-05-05T00:50:45.646Z,381.00
2023-05-05T00:51:45.646Z,380.00
2023-05-05T00:52:45.655Z,384.00
2023-05-05T00:53:45.655Z,385.00
2023-05-05T00:54:45.662Z,384.00
2023-05-05T00:55:45.673Z,383.00
2023-05-05T00:56:45.691Z,384.00
2023-05-05T00:57:45.679Z,386.00
2023-05-05T00:58:45.703Z,387.00
2023-05-05T00:59:45.673Z,390.00
2023-05-05T01:00:45.698Z,390.00
2023-05-05T01:01:45.720Z,387.00
2023-05-05T01:02:45.791Z,388.00
2023-05-05T01:03:45.804Z,386.00
2023-05-05T01:04:45.693Z,385.00
2023-05-05T01:05:45.674Z,385.00
2023-05-05T01:06:45.696Z,385.00
2023-05-05T01:07:45.696Z,384.00
2023-05-05T01:08:45.682Z,384.00
2023-05-05T01:09:45.683Z,384.00
2023-05-05T01:10:45.696Z,384.00
2023-05-05T01:11:45.674Z,386.00
2023-05-05T01:12:45.716Z,386.00
2023-05-05T01:13:45.696Z,388.00
2023-05-05T01:14:45.712Z,389.00
2023-05-05T01:15:45.695Z,389.00
2023-05-05T01:16:45.681Z,388.00
2023-05-05T01:17:45.690Z,387.00
2023-05-05T01:18:45.676Z,389.00
2023-05-05T01:19:45.669Z,389.00
2023-05-05T01:20:45.675Z,389.00
2023-05-05T01:21:45.665Z,390.00
2023-05-05T01:22:45.665Z,390.00
2023-05-05T01:23:45.711Z,389.00
2023-05-05T01:24:45.737Z,391.00
2023-05-05T01:25:45.724Z,393.00
2023-05-05T01:26:45.719Z,393.00
2023-05-05T01:27:45.726Z,394.00
2023-05-05T01:28:45.709Z,394.00
2023-05-05T01:29:45.710Z,391.00
2023-05-05T01:30:45.695Z,390.00
2023-05-05T01:31:45.740Z,390.00
2023-05-05T01:32:45.833Z,389.00
2023-05-05T01:33:45.710Z,390.00
2023-05-05T01:34:45.703Z,389.00
2023-05-05T01:35:45.787Z,388.00
2023-05-05T01:36:45.724Z,388.00
2023-05-05T01:37:45.716Z,387.00
2023-05-05T01:38:45.742Z,391.00
2023-05-05T01:39:45.747Z,392.00
2023-05-05T01:40:45.768Z,393.00
2023-05-05T01:41:45.733Z,392.00
2023-05-05T01:42:45.754Z,391.00
2023-05-05T01:43:45.774Z,391.00
2023-05-05T01:44:45.800Z,392.00
2023-05-05T01:45:45.879Z,393.00
2023-05-05T01:46:45.833Z,392.00
2023-05-05T01:47:45.902Z,392.00
2023-05-05T01:48:45.865Z,395.00
2023-05-05T01:49:45.869Z,395.00
2023-05-05T01:50:45.900Z,397.00
2023-05-05T01:51:45.907Z,397.00
2023-05-05T01:52:45.926Z,397.00
2023-05-05T01:53:45.934Z,398.00
2023-05-05T01:54:45.937Z,397.00
2023-05-05T01:55:46.005Z,397.00
2023-05-05T01:56:45.982Z,397.00
2023-05-05T01:57:45.999Z,396.00
2023-05-05T01:58:46.057Z,395.00
2023-05-05T01:59:46.085Z,396.00
2023-05-05T02:00:46.100Z,397.00
2023-05-05T02:01:46.135Z,399.00
2023-05-05T02:02:46.204Z,400.00
2023-05-05T02:03:46.154Z,402.00
2023-05-05T02:04:46.217Z,400.00
2023-05-05T02:05:46.264Z,399.00
2023-05-05T02:06:46.274Z,399.00
2023-05-05T02:07:46.291Z,397.00
2023-05-05T02:08:46.305Z,395.00
2023-05-05T02:09:46.343Z,396.00
2023-05-05T02:10:46.376Z,395.00
2023-05-05T02:11:46.401Z,396.00
2023-05-05T02:12:46.441Z,395.00
2023-05-05T02:13:46.476Z,395.00
2023-05-05T02:14:46.445Z,395.00
2023-05-05T02:15:46.505Z,397.00
2023-05-05T02:16:46.458Z,399.00
2023-05-05T02:17:46.498Z,399.00
2023-05-05T02:18:46.480Z,399.00
2023-05-05T02:19:46.480Z,399.00
2023-05-05T02:20:46.530Z,398.00
2023-05-05T02:21:46.542Z,397.00
2023-05-05T02:22:46.612Z,397.00
2023-05-05T02:23:46.619Z,399.00
2023-05-05T02:24:46.617Z,400.00
2023-05-05T02:25:46.659Z,397.00
2023-05-05T02:26:46.683Z,399.00
2023-05-05T02:27:46.735Z,401.00
2023-05-05T02:28:46.738Z,402.00
2023-05-05T02:29:46.740Z,400.00
2023-05-05T02:30:46.837Z,398.00
2023-05-05T02:31:46.928Z,398.00
2023-05-05T02:32:46.921Z,397.00
2023-05-05T02:33:46.906Z,398.00
2023-05-05T02:34:46.920Z,400.00
2023-05-05T02:35:46.962Z,399.00
2023-05-05T02:36:47.033Z,400.00
2023-05-05T02:37:47.027Z,399.00
2023-05-05T02:38:47.054Z,399.00
2023-05-05T02:39:47.093Z,398.00
2023-05-05T02:40:47.119Z,398.00
2023-05-05T02:41:47.161Z,398.00
2023-05-05T02:42:47.205Z,396.00
2023-05-05T02:43:47.237Z,397.00
2023-05-05T02:44:47.262Z,399.00
2023-05-05T02:45:47.287Z,401.00
2023-05-05T02:46:47.382Z,401.00
2023-05-05T02:47:47.361Z,400.00
2023-05-05T02:48:47.345Z,401.00
2023-05-05T02:49:47.360Z,402.00
2023-05-05T02:50:47.401Z,403.00
2023-05-05T02:51:47.402Z,402.00
2023-05-05T02:52:47.457Z,402.00
2023-05-05T02:53:47.482Z,403.00
2023-05-05T02:54:47.494Z,403.00
2023-05-05T02:55:47.538Z,403.00
2023-05-05T02:56:47.574Z,404.00
2023-05-05T02:57:47.592Z,402.00
2023-05-05T02:58:47.666Z,403.00
2023-05-05T02:59:47.662Z,403.00
2023-05-05T03:00:47.697Z,402.00
2023-05-05T03:01:47.829Z,402.00
2023-05-05T03:02:47.973Z,402.00
2023-05-05T03:03:48.057Z,403.00
2023-05-05T03:04:47.896Z,404.00
2023-05-05T03:05:47.921Z,403.00
2023-05-05T03:06:47.964Z,404.00
2023-05-05T03:07:47.999Z,403.00
2023-05-05T03:08:48.033Z,402.00
2023-05-05T03:09:48.077Z,401.00
2023-05-05T03:10:48.143Z,398.00
2023-05-05T03:11:48.285Z,400.00
2023-05-05T03:12:48.301Z,401.00
2023-05-05T03:13:48.281Z,401.00
2023-05-05T03:14:48.322Z,401.00
2023-05-05T03:15:48.390Z,402.00
2023-05-05T03:16:48.370Z,403.00
2023-05-05T03:17:48.422Z,404.00
2023-05-05T03:18:48.460Z,403.00
2023-05-05T03:19:48.466Z,404.00
2023-05-05T03:20:48.564Z,405.00
2023-05-05T03:21:48.569Z,405.00
2023-05-05T03:22:48.603Z,402.00
2023-05-05T03:23:48.670Z,404.00
2023-05-05T03:24:48.706Z,404.00
2023-05-05T03:25:48.793Z,405.00
2023-05-05T03:26:48.830Z,406.00
2023-05-05T03:27:48.903Z,407.00
2023-05-05T03:28:48.951Z,405.00
2023-05-05T03:29:48.996Z,405.00
2023-05-05T03:30:49.071Z,405.00
2023-05-05T03:31:49.134Z,403.00
2023-05-05T03:32:49.162Z,402.00
2023-05-05T03:33:49.183Z,400.00
2023-05-05T03:34:49.208Z,401.00
2023-05-05T03:35:49.313Z,401.00
2023-05-05T03:36:49.326Z,402.00
2023-05-05T03:37:49.370Z,401.00
2023-05-05T03:38:49.397Z,402.00
2023-05-05T03:39:49.432Z,400.00
2023-05-05T03:40:49.540Z,400.00
2023-05-05T03:41:49.550Z,404.00
2023-05-05T03:42:49.603Z,407.00
2023-05-05T03:43:49.611Z,409.00
2023-05-05T03:44:49.669Z,409.00
2023-05-05T03:45:49.711Z,408.00
2023-05-05T03:46:49.703Z,409.00
2023-05-05T03:47:49.804Z,408.00
2023-05-05T03:48:49.771Z,405.00
2023-05-05T03:49:49.824Z,403.00
2023-05-05T03:50:49.869Z,402.00
2023-05-05T03:51:49.904Z,401.00
2023-05-05T03:52:49.932Z,400.00
2023-05-05T03:53:49.963Z,403.00
2023-05-05T03:54:49.979Z,404.00
2023-05-05T03:55:50.023Z,404.00
2023-05-05T03:56:50.071Z,406.00
2023-05-05T03:57:50.125Z,407.00
2023-05-05T03:58:50.122Z,408.00
2023-05-05T03:59:50.180Z,407.00
2023-05-05T04:00:50.196Z,407.00
2023-05-05T04:01:50.217Z,408.00
2023-05-05T04:02:50.329Z,410.00
2023-05-05T04:03:50.302Z,410.00
2023-05-05T04:04:50.300Z,411.00
2023-05-05T04:05:50.334Z,412.00
2023-05-05T04:06:50.346Z,410.00
2023-05-05T04:07:50.370Z,411.00
2023-05-05T04:08:50.377Z,409.00
2023-05-05T04:09:50.383Z,407.00
2023-05-05T04:10:50.412Z,407.00
2023-05-05T04:11:50.408Z,409.00
2023-05-05T04:12:50.459Z,408.00
2023-05-05T04:13:50.472Z,408.00
2023-05-05T04:14:50.519Z,408.00
2023-05-05T04:15:50.549Z,408.00
2023-05-05T04:16:50.575Z,407.00
2023-05-05T04:17:50.694Z,408.00
2023-05-05T04:18:50.626Z,410.00
2023-05-05T04:19:50.648Z,411.00
2023-05-05T04:20:50.665Z,410.00
2023-05-05T04:21:50.704Z,409.00
2023-05-05T04:22:52.657Z,408.00
2023-05-05T04:23:50.757Z,408.00
2023-05-05T04:24:50.757Z,408.00
2023-05-05T04:25:50.780Z,406.00
2023-05-05T04:26:50.810Z,405.00
2023-05-05T04:27:50.840Z,402.00
2023-05-05T04:28:50.847Z,401.00
2023-05-05T04:29:50.866Z,401.00
2023-05-05T04:30:50.890Z,401.00
2023-05-05T04:31:50.937Z,403.00
2023-05-05T04:32:51.020Z,404.00
2023-05-05T04:33:50.977Z,404.00
2023-05-05T04:34:51.019Z,403.00
2023-05-05T04:35:51.032Z,402.00
2023-05-05T04:36:51.090Z,404.00
2023-05-05T04:37:51.121Z,403.00
2023-05-05T04:38:51.201Z,403.00
2023-05-05T04:39:51.178Z,402.00
2023-05-05T04:40:51.216Z,402.00
2023-05-05T04:41:51.234Z,400.00
2023-05-05T04:42:51.280Z,399.00
2023-05-05T04:43:51.282Z,401.00
2023-05-05T04:44:51.309Z,403.00
2023-05-05T04:45:51.354Z,403.00
2023-05-05T04:46:51.403Z,403.00
2023-05-05T04:47:51.524Z,403.00
2023-05-05T04:48:51.431Z,404.00
2023-05-05T04:49:51.496Z,401.00
2023-05-05T04:50:51.503Z,401.00
2023-05-05T04:51:51.560Z,401.00
2023-05-05T04:52:52.666Z,399.00
2023-05-05T04:53:51.637Z,396.00
2023-05-05T04:54:51.702Z,395.00
2023-05-05T04:55:51.743Z,397.00
2023-05-05T04:56:51.768Z,398.00
2023-05-05T04:57:51.868Z,396.00
2023-05-05T04:58:51.843Z,397.00
2023-05-05T04:59:51.878Z,396.00
2023-05-05T05:00:51.919Z,399.00
2023-05-05T05:01:52.011Z,401.00
2023-05-05T05:02:52.102Z,402.00
2023-05-05T05:03:52.208Z,403.00
2023-05-05T05:04:52.167Z,402.00
2023-05-05T05:05:52.223Z,401.00
2023-05-05T05:06:52.269Z,400.00
2023-05-05T05:07:52.351Z,401.00
2023-05-05T05:08:52.391Z,403.00
2023-05-05T05:09:52.466Z,404.00
2023-05-05T05:10:52.552Z,404.00
2023-05-05T05:11:52.599Z,404.00
2023-05-05T05:12:52.717Z,406.00
2023-05-05T05:13:52.715Z,407.00
2023-05-05T05:14:52.776Z,407.00
2023-05-05T05:15:52.826Z,405.00
2023-05-05T05:16:53.012Z,404.00
2023-05-05T05:17:52.986Z,403.00
2023-05-05T05:18:53.001Z,404.00
2023-05-05T05:19:53.029Z,406.00
2023-05-05T05:20:53.077Z,405.00
2023-05-05T05:21:53.132Z,405.00
2023-05-05T05:22:53.180Z,407.00
2023-05-05T05:23:53.251Z,406.00
2023-05-05T05:24:53.280Z,406.00
2023-05-05T05:25:53.345Z,406.00
2023-05-05T05:26:53.388Z,407.00
2023-05-05T05:28:06.094Z,408.00
2023-05-05T05:28:54.454Z,407.00
2023-05-05T05:29:53.457Z,405.00
2023-05-05T05:30:53.444Z,404.00
2023-05-05T05:31:53.440Z,411.00
2023-05-05T05:32:53.440Z,434.00
2023-05-05T05:33:53.405Z,446.00
2023-05-05T05:34:53.408Z,460.00
2023-05-05T05:35:53.385Z,477.00
2023-05-05T05:36:53.383Z,513.00
2023-05-05T05:37:53.370Z,543.00
2023-05-05T05:38:53.754Z,533.00
2023-05-05T05:39:53.364Z,535.00
2023-05-05T05:40:53.354Z,552.00
2023-05-05T05:41:53.348Z,559.00
2023-05-05T05:42:53.359Z,577.00
2023-05-05T05:43:53.334Z,591.00
2023-05-05T05:44:53.340Z,583.00
2023-05-05T05:45:53.376Z,574.00
2023-05-05T05:46:53.381Z,562.00
2023-05-05T05:47:53.446Z,557.00
2023-05-05T05:48:53.397Z,551.00
2023-05-05T05:49:53.388Z,545.00
2023-05-05T05:50:53.441Z,532.00
2023-05-05T05:51:53.416Z,528.00
2023-05-05T05:52:53.389Z,528.00
2023-05-05T05:53:53.415Z,529.00
2023-05-05T05:54:53.428Z,529.00
2023-05-05T05:55:53.475Z,553.00
2023-05-05T05:56:53.537Z,574.00
2023-05-05T05:57:53.581Z,607.00
2023-05-05T05:58:53.653Z,611.00
2023-05-05T05:59:53.690Z,603.00
2023-05-05T06:00:53.754Z,590.00
2023-05-05T06:01:53.792Z,579.00
2023-05-05T06:02:53.930Z,572.00
2023-05-05T06:03:54.379Z,564.00
2023-05-05T06:04:53.882Z,562.00
2023-05-05T06:05:53.915Z,553.00
2023-05-05T06:06:53.947Z,547.00
2023-05-05T06:07:54.048Z,543.00
2023-05-05T06:08:54.027Z,545.00
2023-05-05T06:09:54.068Z,543.00
2023-05-05T06:10:54.076Z,539.00
2023-05-05T06:11:54.112Z,543.00
2023-05-05T06:12:54.191Z,546.00
2023-05-05T06:13:54.167Z,551.00
2023-05-05T06:14:54.178Z,558.00
2023-05-05T06:15:54.237Z,559.00
2023-05-05T06:16:54.193Z,564.00
2023-05-05T06:17:54.248Z,568.00
2023-05-05T06:18:54.309Z,573.00
2023-05-05T06:19:54.608Z,579.00
2023-05-05T06:20:54.253Z,582.00
2023-05-05T06:21:54.269Z,586.00
2023-05-05T06:22:54.273Z,591.00
2023-05-05T06:23:54.276Z,596.00
2023-05-05T06:24:54.285Z,596.00
2023-05-05T06:25:54.276Z,593.00
2023-05-05T06:26:54.271Z,592.00
2023-05-05T06:27:54.280Z,594.00
2023-05-05T06:28:54.332Z,594.00
2023-05-05T06:29:54.277Z,596.00
2023-05-05T06:30:54.294Z,598.00
2023-05-05T06:31:54.309Z,599.00
2023-05-05T06:32:54.394Z,515.00
2023-05-05T06:33:54.296Z,509.00
2023-05-05T06:34:54.311Z,505.00
2023-05-05T06:35:54.344Z,503.00
2023-05-05T06:36:54.472Z,507.00
2023-05-05T06:37:54.399Z,508.00
2023-05-05T06:38:54.427Z,515.00
2023-05-05T06:39:54.452Z,526.00
2023-05-05T06:40:54.482Z,533.00
2023-05-05T06:41:54.505Z,538.00
2023-05-05T06:42:54.529Z,543.00
2023-05-05T06:43:54.786Z,550.00
2023-05-05T06:44:54.571Z,557.00
2023-05-05T06:45:54.595Z,567.00
2023-05-05T06:46:54.802Z,574.00
2023-05-05T06:47:54.610Z,580.00
2023-05-05T06:48:54.591Z,583.00
2023-05-05T06:49:54.610Z,578.00
2023-05-05T06:50:54.654Z,526.00
2023-05-05T06:51:54.720Z,512.00
2023-05-05T06:52:54.759Z,503.00
2023-05-05T06:53:55.290Z,494.00
2023-05-05T06:54:54.800Z,488.00
2023-05-05T06:55:55.006Z,482.00
2023-05-05T06:56:54.833Z,483.00
2023-05-05T06:57:54.826Z,480.00
2023-05-05T06:58:54.852Z,479.00
2023-05-05T06:59:54.850Z,478.00
2023-05-05T07:00:54.982Z,483.00
2023-05-05T07:01:54.874Z,487.00
2023-05-05T07:02:54.918Z,489.00
2023-05-05T07:03:54.949Z,486.00
2023-05-05T07:04:54.964Z,457.00
2023-05-05T07:05:55.024Z,454.00
2023-05-05T07:06:55.068Z,446.00
2023-05-05T07:07:55.116Z,443.00
2023-05-05T07:08:55.407Z,433.00
2023-05-05T07:09:55.086Z,437.00
2023-05-05T07:10:55.116Z,450.00
2023-05-05T07:11:55.353Z,457.00
2023-05-05T07:12:55.267Z,462.00
2023-05-05T07:13:55.282Z,462.00
2023-05-05T07:14:55.323Z,461.00
2023-05-05T07:15:55.313Z,461.00
2023-05-05T07:16:55.455Z,463.00
2023-05-05T07:17:55.476Z,467.00
2023-05-05T07:18:55.417Z,473.00
2023-05-05T07:19:55.409Z,476.00
2023-05-05T07:20:55.422Z,481.00
2023-05-05T07:21:55.451Z,485.00
2023-05-05T07:22:55.468Z,485.00
2023-05-05T07:23:55.454Z,489.00
2023-05-05T07:24:55.472Z,494.00
2023-05-05T07:25:55.458Z,497.00
2023-05-05T07:26:55.455Z,510.00
2023-05-05T07:27:55.666Z,584.00
2023-05-05T07:29:23.149Z,612.00
2023-05-05T07:30:23.219Z,600.00
2023-05-05T07:31:22.963Z,593.00
2023-05-05T07:32:23.224Z,607.00
2023-05-05T07:33:22.931Z,664.00
2023-05-05T07:34:22.944Z,697.00
2023-05-05T07:35:22.919Z,719.00
2023-05-05T07:36:22.918Z,742.00
2023-05-05T07:37:23.002Z,754.00
2023-05-05T07:38:22.896Z,760.00
2023-05-05T07:39:22.909Z,761.00
2023-05-05T07:40:22.905Z,769.00
2023-05-05T07:41:22.887Z,777.00
2023-05-05T07:42:22.900Z,784.00
2023-05-05T07:43:22.926Z,786.00
2023-05-05T07:44:22.876Z,785.00
2023-05-05T07:45:22.878Z,786.00
2023-05-05T07:46:22.911Z,790.00
2023-05-05T07:47:22.877Z,800.00
2023-05-05T07:48:22.838Z,798.00
2023-05-05T07:49:23.147Z,796.00
2023-05-05T07:50:22.847Z,791.00
2023-05-05T07:51:22.819Z,787.00
2023-05-05T07:52:33.211Z,787.00
2023-05-05T07:53:23.835Z,786.00
2023-05-05T07:54:23.139Z,783.00
2023-05-05T07:55:22.797Z,778.00
2023-05-05T07:56:22.803Z,773.00
2023-05-05T07:57:22.786Z,771.00
2023-05-05T07:58:22.790Z,772.00
2023-05-05T07:59:23.207Z,769.00
2023-05-05T08:00:22.793Z,769.00
2023-05-05T08:01:22.779Z,776.00
2023-05-05T08:02:22.846Z,777.00
2023-05-05T08:03:22.947Z,778.00
2023-05-05T08:04:22.799Z,781.00
2023-05-05T08:05:22.746Z,778.00
2023-05-05T08:06:22.735Z,773.00
2023-05-05T08:07:22.726Z,775.00
2023-05-05T08:08:22.749Z,775.00
2023-05-05T08:09:23.180Z,780.00
2023-05-05T08:10:22.755Z,787.00
2023-05-05T08:11:22.785Z,793.00
2023-05-05T08:12:22.836Z,794.00
2023-05-05T08:13:22.919Z,795.00
2023-05-05T08:14:22.919Z,791.00
2023-05-05T08:15:22.993Z,792.00
2023-05-05T08:16:22.999Z,793.00
2023-05-05T08:17:23.121Z,790.00
2023-05-05T08:18:22.974Z,798.00
2023-05-05T08:19:29.292Z,799.00
2023-05-05T08:20:24.002Z,795.00
2023-05-05T08:21:22.972Z,760.00
2023-05-05T08:22:22.986Z,741.00
2023-05-05T08:23:22.984Z,753.00
2023-05-05T08:24:23.167Z,636.00
2023-05-05T08:25:22.956Z,628.00
2023-05-05T08:26:22.992Z,557.00
2023-05-05T08:27:22.926Z,563.00
2023-05-05T08:28:22.936Z,542.00
2023-05-05T08:29:22.924Z,469.00
2023-05-05T08:30:22.906Z,455.00
2023-05-05T08:31:23.034Z,445.00
2023-05-05T08:32:22.964Z,437.00
2023-05-05T08:33:23.032Z,426.00
2023-05-05T08:34:23.088Z,419.00
2023-05-05T08:35:23.140Z,411.00
2023-05-05T08:36:23.188Z,409.00
2023-05-05T08:37:23.246Z,412.00
2023-05-05T08:38:23.291Z,421.00
2023-05-05T08:39:23.329Z,433.00
2023-05-05T08:40:23.438Z,446.00
2023-05-05T08:41:23.418Z,446.00
2023-05-05T08:42:36.112Z,447.00
2023-05-05T08:43:24.454Z,458.00
2023-05-05T08:44:23.452Z,493.00
2023-05-05T08:45:23.460Z,500.00
2023-05-05T08:46:23.463Z,504.00
2023-05-05T08:47:23.822Z,508.00
2023-05-05T08:48:23.421Z,505.00
2023-05-05T08:49:23.430Z,500.00
2023-05-05T08:50:23.422Z,499.00
2023-05-05T08:51:23.403Z,496.00
2023-05-05T08:52:23.471Z,500.00
2023-05-05T08:53:23.402Z,504.00
2023-05-05T08:54:23.712Z,524.00
2023-05-05T08:55:23.376Z,516.00
2023-05-05T08:56:23.364Z,517.00
2023-05-05T08:57:23.381Z,511.00
2023-05-05T08:58:23.387Z,503.00
2023-05-05T08:59:23.373Z,500.00
2023-05-05T09:00:23.414Z,500.00
2023-05-05T09:01:23.412Z,501.00
2023-05-05T09:02:23.388Z,501.00
2023-05-05T09:03:23.509Z,495.00
2023-05-05T09:04:23.477Z,489.00
2023-05-05T09:05:23.315Z,485.00
2023-05-05T09:06:23.332Z,482.00
2023-05-05T09:07:23.348Z,482.00
2023-05-05T09:08:23.355Z,485.00
2023-05-05T09:09:23.348Z,509.00
2023-05-05T09:10:23.370Z,534.00
2023-05-05T09:11:23.376Z,523.00
2023-05-05T09:12:23.389Z,581.00
2023-05-05T09:13:23.390Z,601.00
2023-05-05T09:14:23.406Z,607.00
2023-05-05T09:15:23.381Z,515.00
2023-05-05T09:16:23.423Z,512.00
2023-05-05T09:17:23.413Z,514.00
2023-05-05T09:18:23.381Z,517.00
2023-05-05T09:19:23.458Z,521.00
2023-05-05T09:20:23.392Z,520.00
2023-05-05T09:21:23.380Z,520.00
2023-05-05T09:22:23.414Z,524.00
2023-05-05T09:23:23.419Z,548.00
2023-05-05T09:24:23.481Z,546.00
2023-05-05T09:25:23.501Z,537.00
2023-05-05T09:26:23.510Z,527.00
2023-05-05T09:27:23.552Z,521.00
2023-05-05T09:28:23.524Z,561.00
2023-05-05T09:29:23.522Z,557.00
2023-05-05T09:30:23.543Z,553.00
2023-05-05T09:31:23.616Z,553.00
2023-05-05T09:32:23.712Z,538.00
2023-05-05T09:33:23.696Z,530.00
2023-05-05T09:34:23.640Z,516.00
2023-05-05T09:35:23.734Z,509.00
2023-05-05T09:36:23.694Z,498.00
2023-05-05T09:37:23.715Z,512.00
2023-05-05T09:38:24.224Z,595.00
2023-05-05T09:39:23.785Z,617.00
2023-05-05T09:40:23.801Z,635.00
2023-05-05T09:41:23.842Z,643.00
2023-05-05T09:42:23.863Z,648.00
2023-05-05T09:43:23.895Z,655.00
2023-05-05T09:44:23.903Z,664.00
2023-05-05T09:45:23.930Z,673.00
2023-05-05T09:46:23.980Z,684.00
2023-05-05T09:47:29.860Z,689.00
2023-05-05T09:48:24.988Z,692.00
2023-05-05T09:49:23.960Z,705.00
2023-05-05T09:50:23.957Z,716.00
2023-05-05T09:51:24.003Z,725.00
2023-05-05T09:52:23.931Z,732.00
2023-05-05T09:53:23.934Z,740.00
2023-05-05T09:54:23.932Z,753.00
2023-05-05T09:55:23.909Z,765.00
2023-05-05T09:56:23.907Z,772.00
2023-05-05T09:57:23.903Z,778.00
2023-05-05T09:58:24.014Z,783.00
2023-05-05T09:59:23.903Z,787.00
2023-05-05T10:00:23.886Z,785.00
2023-05-05T10:01:23.957Z,786.00
2023-05-05T10:02:23.874Z,782.00
2023-05-05T10:03:23.864Z,774.00
2023-05-05T10:04:24.255Z,766.00
2023-05-05T10:05:23.876Z,760.00
2023-05-05T10:06:23.840Z,748.00
2023-05-05T10:07:23.909Z,737.00
2023-05-05T10:08:23.838Z,738.00
2023-05-05T10:09:23.894Z,733.00
2023-05-05T10:10:23.824Z,734.00
2023-05-05T10:11:23.806Z,741.00
2023-05-05T10:12:23.800Z,750.00
2023-05-05T10:13:23.833Z,753.00
2023-05-05T10:14:23.858Z,760.00
2023-05-05T10:15:23.799Z,760.00
2023-05-05T10:16:23.825Z,758.00
2023-05-05T10:17:23.790Z,757.00
2023-05-05T10:18:23.826Z,755.00
2023-05-05T10:19:23.822Z,753.00
2023-05-05T10:20:23.764Z,748.00
2023-05-05T10:21:23.773Z,745.00
2023-05-05T10:22:23.749Z,657.00
2023-05-05T10:23:23.824Z,675.00
2023-05-05T10:24:24.216Z,679.00
2023-05-05T10:25:23.769Z,683.00
2023-05-05T10:26:23.768Z,676.00
2023-05-05T10:27:23.791Z,681.00
2023-05-05T10:28:23.820Z,699.00
2023-05-05T10:29:23.855Z,706.00
2023-05-05T10:30:23.840Z,728.00
2023-05-05T10:31:26.560Z,771.00
2023-05-05T10:32:50.966Z,790.00
2023-05-05T10:33:30.768Z,791.00
2023-05-05T10:34:24.896Z,796.00
2023-05-05T10:35:23.831Z,804.00
2023-05-05T10:36:24.720Z,809.00
2023-05-05T10:37:23.808Z,811.00
2023-05-05T10:38:25.541Z,813.00
2023-05-05T10:39:23.876Z,817.00
2023-05-05T10:40:23.789Z,823.00
2023-05-05T10:41:23.816Z,831.00
2023-05-05T10:42:23.788Z,839.00
2023-05-05T10:43:23.811Z,849.00
2023-05-05T10:44:23.817Z,856.00
2023-05-05T10:45:23.821Z,863.00
2023-05-05T10:46:23.838Z,864.00
2023-05-05T10:47:23.801Z,868.00
2023-05-05T10:48:23.783Z,872.00
2023-05-05T10:49:23.778Z,876.00
2023-05-05T10:50:23.737Z,876.00
2023-05-05T10:51:35.113Z,865.00
2023-05-05T10:52:24.735Z,853.00
2023-05-05T10:53:23.726Z,848.00
2023-05-05T10:54:23.818Z,849.00
2023-05-05T10:55:23.702Z,841.00
2023-05-05T10:56:23.696Z,835.00
2023-05-05T10:57:23.716Z,832.00
2023-05-05T10:58:23.697Z,829.00
2023-05-05T10:59:23.674Z,825.00
2023-05-05T11:00:23.678Z,823.00
2023-05-05T11:01:23.695Z,822.00
2023-05-05T11:02:23.765Z,818.00
2023-05-05T11:03:23.744Z,798.00
2023-05-05T11:04:23.649Z,786.00
2023-05-05T11:05:23.637Z,787.00
2023-05-05T11:06:23.642Z,787.00
2023-05-05T11:07:23.636Z,785.00
2023-05-05T11:08:23.614Z,784.00
2023-05-05T11:09:23.627Z,778.00
2023-05-05T11:10:23.666Z,771.00
2023-05-05T11:11:23.753Z,765.00
2023-05-05T11:12:23.611Z,762.00
2023-05-05T11:13:23.724Z,762.00
2023-05-05T11:14:23.605Z,767.00
2023-05-05T11:15:23.764Z,774.00
2023-05-05T11:16:23.644Z,778.00
2023-05-05T11:17:23.574Z,778.00
2023-05-05T11:18:23.570Z,716.00
2023-05-05T11:19:23.553Z,775.00
2023-05-05T11:20:23.734Z,696.00
2023-05-05T11:21:23.574Z,691.00
2023-05-05T11:22:23.544Z,703.00
2023-05-05T11:23:23.529Z,701.00
2023-05-05T11:24:23.545Z,699.00
2023-05-05T11:25:23.552Z,694.00
2023-05-05T11:26:23.583Z,686.00
2023-05-05T11:27:23.788Z,662.00
2023-05-05T11:28:23.664Z,592.00
2023-05-05T11:29:23.688Z,605.00
2023-05-05T11:30:23.703Z,602.00
2023-05-05T11:31:23.767Z,603.00
2023-05-05T11:32:23.817Z,601.00
2023-05-05T11:33:23.839Z,597.00
2023-05-05T11:34:23.875Z,592.00
2023-05-05T11:35:23.949Z,586.00
2023-05-05T11:36:24.000Z,584.00
2023-05-05T11:37:24.014Z,581.00
2023-05-05T11:38:24.063Z,579.00
2023-05-05T11:39:24.108Z,588.00
2023-05-05T11:40:24.150Z,592.00
2023-05-05T11:41:24.204Z,597.00
2023-05-05T11:42:24.255Z,599.00
2023-05-05T11:43:24.406Z,600.00
2023-05-05T11:44:24.335Z,600.00
2023-05-05T11:45:24.399Z,598.00
2023-05-05T11:46:24.469Z,597.00
2023-05-05T11:47:24.456Z,597.00
2023-05-05T11:48:24.483Z,593.00
2023-05-05T11:49:24.534Z,590.00
2023-05-05T11:50:24.588Z,586.00
2023-05-05T11:51:24.617Z,584.00
2023-05-05T11:52:24.657Z,581.00
2023-05-05T11:53:24.689Z,576.00
2023-05-05T11:54:24.745Z,568.00
2023-05-05T11:55:24.789Z,564.00
2023-05-05T11:56:24.821Z,561.00
2023-05-05T11:57:24.858Z,558.00
2023-05-05T11:58:24.923Z,556.00
2023-05-05T11:59:25.048Z,554.00
2023-05-05T12:00:24.999Z,553.00
2023-05-05T12:01:25.044Z,551.00
2023-05-05T12:02:25.191Z,547.00
2023-05-05T12:03:25.315Z,547.00
2023-05-05T12:04:25.206Z,545.00
2023-05-05T12:05:25.231Z,544.00
2023-05-05T12:06:25.297Z,542.00
2023-05-05T12:07:25.319Z,538.00
2023-05-05T12:08:25.363Z,538.00
2023-05-05T12:09:25.406Z,537.00
2023-05-05T12:10:25.426Z,535.00
2023-05-05T12:11:25.430Z,531.00
2023-05-05T12:12:25.426Z,530.00
2023-05-05T12:13:25.482Z,526.00
2023-05-05T12:14:25.446Z,521.00
2023-05-05T12:15:25.456Z,518.00
2023-05-05T12:16:25.491Z,516.00
2023-05-05T12:17:25.486Z,512.00
2023-05-05T12:18:25.483Z,511.00
2023-05-05T12:19:25.494Z,510.00
2023-05-05T12:20:25.521Z,507.00
2023-05-05T12:21:25.564Z,500.00
2023-05-05T12:22:25.657Z,497.00
2023-05-05T12:23:25.673Z,496.00
2023-05-05T12:24:25.716Z,493.00
2023-05-05T12:25:25.778Z,492.00
2023-05-05T12:26:25.843Z,491.00
2023-05-05T12:27:25.925Z,488.00
2023-05-05T12:28:25.960Z,486.00
2023-05-05T12:29:25.995Z,484.00